Time;durP1;ratioP1;P1;durP2;ratioP2;P2;SDS_P1;SDS_P2;PMS_P1;PMS_P2;Temp;Humidity;BMP_temperature;BMP_pressure;BME280_temperature;BME280_humidity;BME280_pressure;Samples;Min_cycle;Max_cycle;Signal;HPM_P1;HPM_P2
2024/02/12 15:30:19;;;;;;;3.28;1.08;;;10.00;99.90;;;;;;5021560;28;20046;-84
2024/02/12 15:37:32;;;;;;;4.45;1.20;;;9.80;99.90;;;;;;5007636;28;20028;-84
2024/02/12 15:48:13;;;;;;;5.32;1.60;;;9.70;99.90;;;;;;4993253;28;20403;-83
2024/02/12 16:02:19;;;;;;;8.05;2.42;;;9.70;99.90;;;;;;4904895;29;20035;-85
2024/02/12 16:05:44;;;;;;;5.20;2.20;;;9.70;99.90;;;;;;4902358;28;20039;-84
2024/02/12 16:23:16;;;;;;;7.95;2.17;;;9.60;99.90;;;;;;4929356;29;20509;-84
2024/02/12 16:26:48;;;;;;;7.03;2.05;;;9.60;99.90;;;;;;4910461;29;20036;-86
2024/02/12 16:41:10;;;;;;;7.10;2.38;;;9.50;99.90;;;;;;4871848;29;20077;-85
2024/02/12 16:44:39;;;;;;;8.90;2.30;;;9.40;99.90;;;;;;4926180;29;20048;-86
2024/02/12 16:51:55;;;;;;;6.88;2.05;;;9.40;99.90;;;;;;4924666;29;20071;-85
2024/02/12 16:55:18;;;;;;;10.88;3.30;;;9.30;99.90;;;;;;4847388;29;20085;-85
2024/02/12 17:02:27;;;;;;;11.98;3.40;;;9.30;99.90;;;;;;4864350;29;20125;-85
2024/02/12 17:09:13;;;;;;;11.93;3.10;;;9.30;99.90;;;;;;4850456;29;20494;-88
2024/02/12 17:12:50;;;;;;;;;;;;;;;;;;;;;
2024/02/12 17:23:11;;;;;;;7.45;2.38;;;9.30;99.90;;;;;;4755834;30;20105;-85
2024/02/12 17:33:36;;;;;;;5.15;2.15;;;9.20;99.90;;;;;;4795665;30;20058;-85
2024/02/12 17:37:22;;;;;;;9.77;2.38;;;9.20;99.90;;;;;;4812485;29;20066;-86
2024/02/12 17:40:41;;;;;;;13.25;2.40;;;9.20;99.90;;;;;;4805461;29;20046;-86
2024/02/12 17:43:54;;;;;;;9.52;2.60;;;9.10;99.90;;;;;;4780072;29;20039;-84
2024/02/12 17:51:01;;;;;;;12.13;4.10;;;9.00;99.90;;;;;;4856626;29;20041;-85
2024/02/12 18:03:53;;;;;;;6.53;2.33;;;8.90;99.90;;;;;;4917579;29;20052;-84
2024/02/12 18:06:28;;;;;;;6.35;2.28;;;8.90;99.90;;;;;;4963609;28;20041;-84
2024/02/12 18:09:38;;;;;;;15.30;3.63;;;8.90;99.90;;;;;;5005314;28;20061;-83
2024/02/12 18:12:27;;;;;;;8.93;2.67;;;8.90;99.90;;;;;;5006487;28;20476;-85
2024/02/12 18:18:40;;;;;;;9.25;2.97;;;8.80;99.90;;;;;;5010553;28;20044;-87
2024/02/12 18:25:14;;;;;;;10.27;2.65;;;8.70;99.90;;;;;;5001753;28;20069;-87
2024/02/12 18:28:26;;;;;;;12.15;3.20;;;8.70;99.90;;;;;;5006417;28;20030;-87
2024/02/12 18:31:08;;;;;;;9.85;3.42;;;8.50;99.90;;;;;;4961134;28;20035;-85
2024/02/12 18:33:38;;;;;;;11.07;3.30;;;8.60;99.90;;;;;;5003565;28;20094;-84
2024/02/12 18:36:27;;;;;;;10.77;2.60;;;8.50;99.90;;;;;;4997719;28;20062;-82
2024/02/12 18:42:50;;;;;;;8.75;2.13;;;8.40;99.90;;;;;;4964277;29;20074;-86
2024/02/12 18:45:17;;;;;;;8.50;2.97;;;8.40;99.90;;;;;;5001476;28;20458;-86
2024/02/12 18:47:45;;;;;;;12.68;2.88;;;8.40;99.90;;;;;;5004540;28;20034;-85
2024/02/12 18:50:11;;;;;;;9.75;2.95;;;8.40;99.90;;;;;;5003749;28;20026;-85
2024/02/12 18:52:37;;;;;;;8.93;3.15;;;8.40;99.90;;;;;;5033227;28;20030;-83
2024/02/12 18:55:06;;;;;;;8.02;2.80;;;8.40;99.90;;;;;;5000382;28;20038;-85
2024/02/12 18:57:32;;;;;;;11.60;2.83;;;8.30;99.90;;;;;;5028608;28;20081;-87
2024/02/12 18:59:58;;;;;;;11.02;2.60;;;8.20;99.90;;;;;;5000636;28;20070;-86
2024/02/12 19:02:24;;;;;;;7.53;2.83;;;8.80;99.90;;;;;;4983807;28;20094;-83
2024/02/12 19:04:51;;;;;;;10.35;2.55;;;8.20;99.90;;;;;;5002966;28;20031;-81
2024/02/12 19:07:17;;;;;;;9.73;2.70;;;8.30;99.90;;;;;;5034046;28;20057;-86
2024/02/12 19:10:42;;;;;;;;;;;;;;;;;;;;;
2024/02/12 19:13:11;;;;;;;10.60;3.70;;;8.00;99.90;;;;;;4997604;28;20094;-87
2024/02/12 19:15:39;;;;;;;8.88;2.95;;;8.00;99.90;;;;;;4996687;28;20058;-83
2024/02/12 19:18:07;;;;;;;11.17;4.47;;;8.00;99.90;;;;;;4995788;28;20030;-86
2024/02/12 19:20:33;;;;;;;13.55;5.07;;;7.90;99.90;;;;;;4989076;28;20057;-86
2024/02/12 19:22:59;;;;;;;13.05;4.78;;;7.90;99.90;;;;;;5000965;28;20030;-83
2024/02/12 19:25:25;;;;;;;15.88;6.07;;;7.70;99.90;;;;;;4995106;28;20027;-84
2024/02/12 19:27:50;;;;;;;13.32;5.97;;;7.80;99.90;;;;;;4992003;28;20391;-86
2024/02/12 19:30:17;;;;;;;19.98;7.22;;;7.70;99.90;;;;;;4992106;28;20019;-86
2024/02/12 19:32:43;;;;;;;15.57;6.30;;;7.70;99.90;;;;;;5039836;28;20023;-87
2024/02/12 19:35:10;;;;;;;17.70;6.95;;;8.70;99.90;;;;;;4992560;28;20053;-86
2024/02/12 19:37:39;;;;;;;16.75;7.10;;;7.70;99.90;;;;;;5006636;28;20056;-86
2024/02/12 19:40:12;;;;;;;19.58;9.15;;;7.60;99.90;;;;;;5003089;28;20786;-87
2024/02/12 19:42:39;;;;;;;22.83;10.88;;;7.60;99.90;;;;;;4995087;28;20026;-85
2024/02/12 19:45:06;;;;;;;17.27;7.75;;;7.50;99.90;;;;;;5042026;28;20092;-83
2024/02/12 19:47:32;;;;;;;20.90;7.82;;;7.50;99.90;;;;;;4996329;28;20026;-85
2024/02/12 19:49:58;;;;;;;17.88;6.38;;;7.40;99.90;;;;;;5001159;28;20217;-87
2024/02/12 19:52:24;;;;;;;16.13;6.30;;;7.30;99.90;;;;;;5003507;28;20062;-87
2024/02/12 19:54:49;;;;;;;17.55;6.20;;;7.40;99.90;;;;;;5000828;28;20035;-83
2024/02/12 19:57:15;;;;;;;24.67;8.30;;;8.40;99.90;;;;;;5002713;28;20061;-87
2024/02/12 19:59:40;;;;;;;19.35;8.98;;;7.20;99.90;;;;;;5003501;28;20098;-84
2024/02/12 20:02:06;;;;;;;20.23;8.68;;;7.20;99.90;;;;;;5030005;28;20037;-86
2024/02/12 20:04:33;;;;;;;19.55;10.07;;;7.20;99.90;;;;;;4996379;28;20061;-87
2024/02/12 20:07:00;;;;;;;23.55;9.60;;;7.20;99.90;;;;;;4993020;28;20037;-85
2024/02/12 20:09:26;;;;;;;22.25;8.50;;;6.80;99.90;;;;;;5005286;28;20039;-85
2024/02/12 20:11:52;;;;;;;16.00;7.63;;;7.20;99.90;;;;;;5007863;28;20018;-85
2024/02/12 20:14:18;;;;;;;37.33;14.38;;;7.10;99.90;;;;;;5006302;28;20014;-86
2024/02/12 20:16:43;;;;;;;25.15;10.77;;;7.10;99.90;;;;;;5003474;28;20054;-83
2024/02/12 20:19:09;;;;;;;19.33;8.95;;;8.10;99.90;;;;;;5000109;28;20042;-84
2024/02/12 20:21:35;;;;;;;13.40;5.57;;;8.00;99.90;;;;;;5002843;28;20022;-89
2024/02/12 20:24:04;;;;;;;9.35;4.85;;;8.30;99.90;;;;;;4996363;28;20038;-84
2024/02/12 20:26:31;;;;;;;13.35;4.68;;;6.90;99.90;;;;;;5000698;28;20027;-87
2024/02/12 20:28:56;;;;;;;11.45;4.75;;;6.80;99.90;;;;;;4997737;28;20357;-85
2024/02/12 20:31:22;;;;;;;10.32;4.22;;;6.70;99.90;;;;;;4997967;28;20060;-86
2024/02/12 20:33:52;;;;;;;12.73;4.35;;;6.70;99.90;;;;;;5019300;28;20030;-85
2024/02/12 20:36:18;;;;;;;12.88;5.18;;;6.60;99.90;;;;;;5004439;28;20038;-87
